createdAt,value
2022-10-05T00:00:04.863Z,6.80
2022-10-05T00:02:36.152Z,7.50
2022-10-05T00:05:19.792Z,7.40
2022-10-05T00:07:52.510Z,7.70
2022-10-05T00:10:24.083Z,7.50
2022-10-05T00:12:55.574Z,8.10
2022-10-05T00:15:27.535Z,7.40
2022-10-05T00:17:59.857Z,7.80
2022-10-05T00:20:31.376Z,7.90
2022-10-05T00:23:06.099Z,8.30
2022-10-05T00:28:16.874Z,8.70
2022-10-05T00:30:48.411Z,8.00
2022-10-05T00:33:19.607Z,8.30
2022-10-05T00:35:50.907Z,8.60
2022-10-05T00:38:23.058Z,9.00
2022-10-05T00:41:07.597Z,9.10
2022-10-05T00:43:56.730Z,8.70
2022-10-05T00:46:34.893Z,10.30
2022-10-05T00:49:15.580Z,10.00
2022-10-05T00:51:54.723Z,8.80
2022-10-05T00:54:33.157Z,9.20
2022-10-05T00:57:29.122Z,9.70
2022-10-05T01:00:06.593Z,9.90
2022-10-05T01:02:49.316Z,9.10
2022-10-05T01:05:34.874Z,10.00
2022-10-05T01:08:17.731Z,9.70
2022-10-05T01:10:56.435Z,10.80
2022-10-05T01:13:33.945Z,10.50
2022-10-05T01:16:15.132Z,11.40
2022-10-05T01:18:53.861Z,11.10
2022-10-05T01:21:27.278Z,12.20
2022-10-05T01:24:36.201Z,10.80
2022-10-05T01:27:23.752Z,10.10
2022-10-05T01:30:00.912Z,10.80
2022-10-05T01:32:37.171Z,9.10
2022-10-05T01:35:19.942Z,10.30
2022-10-05T01:38:09.717Z,10.50
2022-10-05T01:40:52.493Z,10.00
2022-10-05T01:43:30.695Z,10.50
2022-10-05T01:46:11.721Z,9.50
2022-10-05T01:48:54.878Z,9.80
2022-10-05T01:51:35.588Z,8.40
2022-10-05T01:54:19.032Z,9.30
2022-10-05T01:57:02.141Z,8.40
2022-10-05T01:59:47.703Z,8.20
2022-10-05T02:02:22.452Z,9.00
2022-10-05T02:07:38.926Z,8.30
2022-10-05T02:10:16.738Z,8.70
2022-10-05T02:12:51.971Z,9.10
2022-10-05T02:15:28.825Z,8.90
2022-10-05T02:18:05.766Z,8.10
2022-10-05T02:20:39.641Z,8.50
2022-10-05T02:23:14.114Z,8.00
2022-10-05T02:25:48.134Z,7.50
2022-10-05T02:28:24.089Z,7.20
2022-10-05T02:31:00.225Z,8.40
2022-10-05T02:33:34.158Z,7.90
2022-10-05T02:36:12.887Z,7.50
2022-10-05T02:38:57.505Z,7.20
2022-10-05T02:41:44.176Z,7.20
2022-10-05T02:44:28.302Z,7.00
2022-10-05T02:47:07.823Z,6.70
2022-10-05T02:49:42.756Z,7.20
2022-10-05T02:52:20.383Z,7.60
2022-10-05T02:55:03.712Z,7.80
2022-10-05T02:57:40.105Z,7.60
2022-10-05T03:00:15.229Z,7.40
2022-10-05T03:02:53.998Z,7.20
2022-10-05T03:05:29.470Z,6.60
2022-10-05T03:08:05.169Z,7.20
2022-10-05T03:10:44.496Z,8.20
2022-10-05T03:13:26.919Z,7.40
2022-10-05T03:16:12.611Z,7.80
2022-10-05T03:18:55.753Z,7.10
2022-10-05T03:21:41.199Z,7.50
2022-10-05T03:24:28.217Z,7.60
2022-10-05T03:27:08.753Z,7.70
2022-10-05T03:29:45.718Z,7.90
2022-10-05T03:32:26.750Z,7.00
2022-10-05T03:35:10.040Z,7.60
2022-10-05T03:37:57.127Z,8.00
2022-10-05T03:40:41.431Z,7.40
2022-10-05T03:43:34.557Z,8.50
2022-10-05T03:46:13.108Z,8.10
2022-10-05T03:48:53.950Z,7.50
2022-10-05T03:51:34.242Z,7.40
2022-10-05T03:54:13.391Z,8.30
2022-10-05T03:56:50.662Z,8.20
2022-10-05T03:59:31.520Z,7.90
2022-10-05T04:02:07.557Z,8.60
2022-10-05T04:04:44.287Z,8.10
2022-10-05T04:07:32.179Z,7.70
2022-10-05T04:10:05.052Z,7.60
2022-10-05T04:12:42.261Z,7.50
2022-10-05T04:15:20.765Z,7.70
2022-10-05T04:17:57.232Z,6.60
2022-10-05T04:20:35.810Z,6.10
2022-10-05T04:23:16.906Z,6.90
2022-10-05T04:25:52.042Z,7.20
2022-10-05T04:28:32.189Z,6.90
2022-10-05T04:31:08.201Z,7.00
2022-10-05T04:33:39.444Z,6.90
2022-10-05T04:36:22.626Z,7.40
2022-10-05T04:39:07.024Z,6.90
2022-10-05T04:41:55.157Z,6.70
2022-10-05T04:44:50.879Z,6.90
2022-10-05T04:48:06.742Z,6.30
2022-10-05T04:50:57.638Z,6.10
2022-10-05T04:53:35.091Z,6.20
2022-10-05T04:56:14.191Z,6.60
2022-10-05T04:59:05.523Z,7.00
2022-10-05T05:01:52.540Z,6.60
2022-10-05T05:04:38.065Z,6.10
2022-10-05T05:07:20.231Z,6.80
2022-10-05T05:10:24.890Z,6.80
2022-10-05T05:13:08.941Z,6.20
2022-10-05T05:15:51.520Z,7.30
2022-10-05T05:18:47.206Z,7.20
2022-10-05T05:21:33.188Z,6.10
2022-10-05T05:24:14.059Z,6.90
2022-10-05T05:27:02.648Z,7.10
2022-10-05T05:29:45.223Z,8.60
2022-10-05T05:32:33.520Z,8.30
2022-10-05T05:35:28.553Z,8.00
2022-10-05T05:38:10.575Z,7.30
2022-10-05T05:40:49.072Z,6.60
2022-10-05T05:43:28.208Z,6.80
2022-10-05T05:46:06.242Z,6.80
2022-10-05T05:48:42.845Z,6.20
2022-10-05T05:51:19.058Z,6.80
2022-10-05T05:53:56.443Z,6.20
2022-10-05T05:56:34.014Z,6.20
2022-10-05T05:59:14.180Z,7.10
2022-10-05T06:01:50.594Z,5.80
2022-10-05T06:04:27.940Z,6.60
2022-10-05T06:07:03.350Z,6.50
2022-10-05T06:09:40.722Z,6.90
2022-10-05T06:12:15.777Z,6.80
2022-10-05T06:14:52.060Z,6.60
2022-10-05T06:17:28.416Z,6.20
2022-10-05T06:20:05.331Z,6.60
2022-10-05T06:22:42.437Z,7.00
2022-10-05T06:25:30.304Z,6.30
2022-10-05T06:28:12.814Z,5.90
2022-10-05T06:30:57.727Z,5.80
2022-10-05T06:33:43.744Z,5.90
2022-10-05T06:36:25.157Z,6.40
2022-10-05T06:39:26.202Z,5.70
2022-10-05T06:42:14.042Z,5.60
2022-10-05T06:44:54.937Z,5.40
2022-10-05T06:47:37.394Z,6.10
2022-10-05T06:50:20.578Z,5.20
2022-10-05T06:53:04.248Z,5.10
2022-10-05T06:55:45.922Z,5.10
2022-10-05T06:58:37.755Z,4.90
2022-10-05T07:01:15.560Z,5.40
2022-10-05T07:03:58.851Z,4.80
2022-10-05T07:06:37.262Z,5.50
2022-10-05T07:09:24.413Z,5.40
2022-10-05T07:12:09.265Z,5.00
2022-10-05T07:14:54.131Z,5.20
2022-10-05T07:17:45.942Z,4.50
2022-10-05T07:20:24.057Z,4.60
2022-10-05T07:23:25.465Z,5.00
2022-10-05T07:26:05.148Z,4.90
2022-10-05T07:28:46.378Z,5.30
2022-10-05T07:31:28.830Z,5.10
2022-10-05T07:34:07.117Z,4.80
2022-10-05T07:37:03.044Z,5.10
2022-10-05T07:39:59.481Z,5.40
2022-10-05T07:42:50.514Z,6.10
2022-10-05T07:45:31.587Z,5.70
2022-10-05T07:48:08.868Z,6.50
2022-10-05T07:50:46.016Z,5.70
2022-10-05T07:53:21.402Z,5.70
2022-10-05T07:55:55.728Z,5.40
2022-10-05T07:58:31.685Z,5.80
2022-10-05T08:01:10.215Z,5.60
2022-10-05T08:03:52.428Z,6.50
2022-10-05T08:06:41.166Z,6.30
2022-10-05T08:09:30.926Z,6.20
2022-10-05T08:12:18.224Z,5.20
2022-10-05T08:14:58.402Z,5.50
2022-10-05T08:17:41.098Z,6.10
2022-10-05T08:20:31.563Z,5.90
2022-10-05T08:23:08.795Z,6.10
2022-10-05T08:25:55.283Z,5.50
2022-10-05T08:28:29.847Z,5.90
2022-10-05T08:33:40.691Z,5.20
2022-10-05T08:36:17.401Z,5.70
2022-10-05T08:38:54.937Z,5.00
2022-10-05T08:41:52.866Z,6.20
2022-10-05T08:45:06.058Z,5.60
2022-10-05T08:48:06.512Z,5.20
2022-10-05T08:51:17.841Z,5.30
2022-10-05T08:57:02.107Z,5.70
2022-10-05T08:59:59.053Z,5.30
2022-10-05T09:02:41.990Z,5.30
2022-10-05T09:05:38.011Z,5.10
2022-10-05T09:08:31.323Z,6.30
2022-10-05T09:11:19.165Z,5.30
2022-10-05T09:14:29.756Z,5.20
2022-10-05T09:17:39.202Z,5.80
2022-10-05T09:20:32.399Z,5.00
2022-10-05T09:23:16.078Z,5.00
2022-10-05T09:25:58.982Z,5.50
2022-10-05T09:28:39.682Z,5.90
2022-10-05T09:31:41.227Z,5.50
2022-10-05T09:34:50.840Z,5.20
2022-10-05T09:37:37.505Z,5.70
2022-10-05T09:40:41.935Z,6.00
2022-10-05T09:43:40.446Z,6.40
2022-10-05T09:46:36.446Z,5.30
2022-10-05T09:49:40.264Z,4.80
2022-10-05T09:52:27.993Z,5.50
2022-10-05T09:55:43.948Z,5.70
2022-10-05T09:58:48.568Z,5.90
2022-10-05T10:01:35.267Z,5.50
2022-10-05T10:04:44.213Z,6.20
2022-10-05T10:07:37.305Z,5.60
2022-10-05T10:10:39.140Z,5.40
2022-10-05T10:13:32.039Z,6.20
2022-10-05T10:16:17.601Z,5.90
2022-10-05T10:19:21.146Z,5.70
2022-10-05T10:22:31.349Z,6.10
2022-10-05T10:25:19.822Z,5.80
2022-10-05T10:28:08.618Z,6.30
2022-10-05T10:31:07.836Z,5.70
2022-10-05T10:34:11.936Z,5.10
2022-10-05T10:37:06.472Z,4.80
2022-10-05T10:39:55.656Z,5.40
2022-10-05T10:42:38.937Z,5.10
2022-10-05T10:45:21.347Z,5.50
2022-10-05T10:48:02.690Z,5.60
2022-10-05T10:50:50.975Z,5.50
2022-10-05T10:54:03.754Z,5.30
2022-10-05T10:57:00.008Z,5.50
2022-10-05T11:00:18.347Z,4.50
2022-10-05T11:03:05.125Z,5.50
2022-10-05T11:05:55.200Z,5.70
2022-10-05T11:08:59.354Z,5.40
2022-10-05T11:12:03.786Z,5.70
2022-10-05T11:14:52.607Z,5.40
2022-10-05T11:17:57.173Z,5.10
2022-10-05T11:20:49.581Z,5.10
2022-10-05T11:23:43.836Z,5.40
2022-10-05T11:26:32.722Z,4.60
2022-10-05T11:29:29.436Z,5.40
2022-10-05T11:32:31.779Z,4.40
2022-10-05T11:35:24.987Z,4.90
2022-10-05T11:38:17.385Z,5.70
2022-10-05T11:41:13.424Z,4.90
2022-10-05T11:44:07.043Z,4.90
2022-10-05T11:46:49.830Z,4.40
2022-10-05T11:49:34.428Z,4.80
2022-10-05T11:52:12.721Z,3.70
2022-10-05T11:55:25.136Z,3.60
2022-10-05T11:58:01.210Z,4.30
2022-10-05T12:00:40.687Z,4.20
2022-10-05T12:03:39.067Z,4.30
2022-10-05T12:06:26.623Z,3.70
2022-10-05T12:09:12.401Z,4.20
2022-10-05T12:11:58.635Z,4.00
2022-10-05T12:14:42.628Z,3.00
2022-10-05T12:17:24.394Z,3.10
2022-10-05T12:20:01.518Z,2.90
2022-10-05T12:22:38.954Z,3.80
2022-10-05T12:25:25.893Z,3.60
2022-10-05T12:28:00.121Z,3.50
2022-10-05T12:30:52.971Z,4.10
2022-10-05T12:33:29.309Z,4.50
2022-10-05T12:36:07.156Z,4.00
2022-10-05T12:38:44.497Z,3.10
2022-10-05T12:41:24.243Z,3.40
2022-10-05T12:44:11.351Z,3.10
2022-10-05T12:46:51.641Z,3.10
2022-10-05T12:50:01.575Z,2.90
2022-10-05T12:52:47.354Z,2.70
2022-10-05T12:55:26.851Z,2.90
2022-10-05T12:58:09.365Z,3.20
2022-10-05T13:00:52.050Z,2.70
2022-10-05T13:03:32.028Z,3.00
2022-10-05T13:06:13.354Z,2.90
2022-10-05T13:08:53.475Z,2.80
2022-10-05T13:11:35.322Z,3.00
2022-10-05T13:14:16.734Z,2.80
2022-10-05T13:16:55.494Z,2.40
2022-10-05T13:19:40.667Z,2.70
2022-10-05T13:22:28.711Z,2.40
2022-10-05T13:25:10.618Z,2.60
2022-10-05T13:27:47.052Z,2.50
2022-10-05T13:30:20.807Z,2.90
2022-10-05T13:32:58.846Z,3.30
2022-10-05T13:35:45.306Z,3.50
2022-10-05T13:38:31.266Z,3.10
2022-10-05T13:41:16.109Z,3.20
2022-10-05T13:46:29.896Z,3.40
2022-10-05T13:49:10.745Z,3.70
2022-10-05T13:51:48.430Z,3.70
2022-10-05T13:54:24.282Z,3.90
2022-10-05T13:57:03.525Z,3.60
2022-10-05T13:59:43.739Z,4.00
2022-10-05T14:02:21.849Z,4.20
2022-10-05T14:04:59.865Z,3.80
2022-10-05T14:07:39.554Z,4.10
2022-10-05T14:10:29.779Z,4.30
2022-10-05T14:13:02.429Z,3.90
2022-10-05T14:15:41.312Z,4.60
2022-10-05T14:18:28.012Z,4.30
2022-10-05T14:21:05.130Z,4.00
2022-10-05T14:23:36.521Z,3.90
2022-10-05T14:26:31.561Z,3.70
2022-10-05T14:29:05.513Z,3.40
2022-10-05T14:31:38.664Z,3.50
2022-10-05T14:34:32.244Z,3.00
2022-10-05T14:37:10.320Z,3.60
2022-10-05T14:39:44.531Z,3.80
2022-10-05T14:42:21.496Z,4.40
2022-10-05T14:45:12.987Z,4.40
2022-10-05T14:47:51.528Z,4.90
2022-10-05T14:50:29.800Z,6.00
2022-10-05T14:53:19.224Z,5.80
2022-10-05T14:56:32.502Z,4.10
2022-10-05T14:59:30.876Z,3.60
2022-10-05T15:02:36.987Z,3.80
2022-10-05T15:05:17.058Z,3.60
2022-10-05T15:07:50.512Z,3.70
2022-10-05T15:10:43.649Z,3.90
2022-10-05T15:13:20.294Z,4.90
2022-10-05T15:15:54.932Z,4.50
2022-10-05T15:18:37.624Z,4.80
2022-10-05T15:21:26.641Z,3.70
2022-10-05T15:24:02.478Z,3.80
2022-10-05T15:26:45.341Z,3.30
2022-10-05T15:29:30.572Z,3.40
2022-10-05T15:32:14.816Z,3.50
2022-10-05T15:34:58.645Z,3.00
2022-10-05T15:37:37.786Z,3.00
2022-10-05T15:40:17.537Z,2.80
2022-10-05T15:42:50.737Z,3.30
2022-10-05T15:45:30.421Z,3.40
2022-10-05T15:48:05.160Z,3.80
2022-10-05T15:50:44.012Z,3.90
2022-10-05T15:53:25.263Z,4.20
2022-10-05T15:56:02.845Z,4.30
2022-10-05T15:58:55.318Z,4.40
2022-10-05T16:01:48.559Z,4.30
2022-10-05T16:04:27.552Z,5.30
2022-10-05T16:07:20.142Z,5.60
2022-10-05T16:09:59.643Z,5.50
2022-10-05T16:12:50.151Z,5.80
2022-10-05T16:15:30.011Z,5.90
2022-10-05T16:18:19.310Z,5.60
2022-10-05T16:20:57.340Z,6.60
2022-10-05T16:23:39.124Z,6.30
2022-10-05T16:26:26.240Z,7.30
2022-10-05T16:29:07.012Z,6.30
2022-10-05T16:31:47.378Z,5.30
2022-10-05T16:34:31.164Z,5.30
2022-10-05T16:37:10.995Z,4.80
2022-10-05T16:39:53.216Z,4.50
2022-10-05T16:42:37.016Z,4.60
2022-10-05T16:45:18.230Z,5.70
2022-10-05T16:47:56.976Z,6.90
2022-10-05T16:50:37.282Z,6.10
2022-10-05T16:53:17.149Z,5.20
2022-10-05T16:55:54.359Z,5.10
2022-10-05T16:58:31.127Z,5.00
2022-10-05T17:01:24.701Z,5.20
2022-10-05T17:04:08.239Z,4.80
2022-10-05T17:07:03.423Z,4.50
2022-10-05T17:09:59.551Z,4.70
2022-10-05T17:12:48.385Z,4.80
2022-10-05T17:15:47.999Z,4.20
2022-10-05T17:18:30.285Z,3.90
2022-10-05T17:21:08.283Z,4.50
2022-10-05T17:23:55.125Z,4.20
2022-10-05T17:26:56.896Z,4.80
2022-10-05T17:29:47.781Z,5.30
2022-10-05T17:32:39.740Z,5.30
2022-10-05T17:35:22.408Z,5.90
2022-10-05T17:38:22.118Z,7.90
2022-10-05T17:41:29.807Z,6.90
2022-10-05T17:44:24.716Z,6.60
2022-10-05T17:46:58.676Z,6.90
2022-10-05T17:50:16.236Z,6.40
2022-10-05T17:53:27.661Z,6.60
2022-10-05T17:56:08.280Z,6.50
2022-10-05T17:59:06.919Z,7.20
2022-10-05T18:01:40.411Z,7.10
2022-10-05T18:04:35.092Z,6.60
2022-10-05T18:07:19.883Z,6.10
2022-10-05T18:10:23.485Z,6.20
2022-10-05T18:13:22.607Z,6.10
2022-10-05T18:15:54.559Z,5.40
2022-10-05T18:18:57.981Z,5.10
2022-10-05T18:21:35.795Z,6.00
2022-10-05T18:24:37.144Z,5.50
2022-10-05T18:27:30.579Z,5.40
2022-10-05T18:30:15.797Z,5.10
2022-10-05T18:35:30.115Z,5.70
2022-10-05T18:38:11.477Z,5.70
2022-10-05T18:40:54.282Z,5.00
2022-10-05T18:43:34.784Z,5.40
2022-10-05T18:46:18.131Z,5.50
2022-10-05T18:49:01.571Z,5.90
2022-10-05T18:51:51.532Z,5.90
2022-10-05T18:54:40.365Z,6.20
2022-10-05T18:57:41.213Z,6.50
2022-10-05T19:00:17.855Z,5.50
2022-10-05T19:02:54.690Z,6.00
2022-10-05T19:05:48.083Z,5.80
2022-10-05T19:08:30.126Z,6.10
2022-10-05T19:11:12.575Z,6.20
2022-10-05T19:13:52.026Z,6.40
2022-10-05T19:16:43.344Z,6.00
2022-10-05T19:19:33.611Z,6.70
2022-10-05T19:22:10.081Z,6.90
2022-10-05T19:24:50.626Z,6.70
2022-10-05T19:27:37.206Z,6.70
2022-10-05T19:30:23.332Z,6.80
2022-10-05T19:33:09.209Z,6.80
2022-10-05T19:35:57.696Z,6.90
2022-10-05T19:38:34.835Z,6.30
2022-10-05T19:41:16.364Z,6.90
2022-10-05T19:44:03.766Z,7.00
2022-10-05T19:46:51.255Z,6.60
2022-10-05T19:49:52.108Z,6.80
2022-10-05T19:52:31.385Z,6.40
2022-10-05T19:55:15.012Z,6.00
2022-10-05T19:57:54.025Z,5.90
2022-10-05T20:00:35.136Z,6.10
2022-10-05T20:03:28.359Z,5.50
2022-10-05T20:06:01.478Z,5.40
2022-10-05T20:08:40.884Z,6.00
2022-10-05T20:11:14.630Z,5.50
2022-10-05T20:13:47.783Z,6.80
2022-10-05T20:16:58.315Z,5.70
2022-10-05T20:19:54.400Z,7.70
2022-10-05T20:22:39.840Z,6.40
2022-10-05T20:25:32.512Z,6.00
2022-10-05T20:28:04.178Z,6.70
2022-10-05T20:30:35.547Z,6.10
2022-10-05T20:33:11.973Z,5.50
2022-10-05T20:35:43.752Z,7.50
2022-10-05T20:38:15.178Z,6.30
2022-10-05T20:40:46.926Z,6.10
2022-10-05T20:43:25.297Z,6.00
2022-10-05T20:45:56.909Z,5.90
2022-10-05T20:48:28.804Z,6.10
2022-10-05T20:51:00.555Z,5.80
2022-10-05T20:53:31.735Z,9.60
2022-10-05T20:56:04.768Z,8.80
2022-10-05T20:58:36.762Z,5.90
2022-10-05T21:01:19.369Z,6.00
2022-10-05T21:03:51.140Z,6.40
2022-10-05T21:06:23.198Z,6.30
2022-10-05T21:08:54.518Z,6.00
2022-10-05T21:11:28.327Z,6.60
2022-10-05T21:14:04.881Z,5.50
2022-10-05T21:16:38.385Z,6.20
2022-10-05T21:19:12.478Z,7.00
2022-10-05T21:21:44.966Z,7.00
2022-10-05T21:24:17.570Z,6.90
2022-10-05T21:26:49.262Z,7.10
2022-10-05T21:29:20.496Z,6.40
2022-10-05T21:31:51.975Z,6.20
2022-10-05T21:34:23.685Z,6.40
2022-10-05T21:36:55.408Z,6.20
2022-10-05T21:39:27.644Z,6.10
2022-10-05T21:41:58.851Z,6.10
2022-10-05T21:44:30.431Z,6.40
2022-10-05T21:47:02.587Z,6.00
2022-10-05T21:49:34.636Z,6.20
2022-10-05T21:52:06.747Z,7.00
2022-10-05T21:54:38.281Z,6.70
2022-10-05T21:57:12.516Z,6.30
2022-10-05T21:59:44.205Z,7.20
2022-10-05T22:02:15.677Z,5.90
2022-10-05T22:04:47.070Z,6.40
2022-10-05T22:07:20.863Z,7.00
2022-10-05T22:09:52.939Z,6.60
2022-10-05T22:12:26.647Z,6.30
2022-10-05T22:14:58.289Z,6.60
2022-10-05T22:17:31.986Z,6.20
2022-10-05T22:20:03.905Z,6.10
2022-10-05T22:22:35.335Z,6.40
2022-10-05T22:25:07.507Z,7.40
2022-10-05T22:27:40.349Z,6.90
2022-10-05T22:30:15.006Z,6.40
2022-10-05T22:35:16.629Z,5.60
2022-10-05T22:37:47.842Z,6.70
2022-10-05T22:40:19.525Z,6.40
2022-10-05T22:42:50.924Z,6.30
2022-10-05T22:45:22.165Z,6.20
2022-10-05T22:47:53.387Z,5.90
2022-10-05T22:50:24.760Z,6.30
2022-10-05T22:52:56.277Z,6.00
2022-10-05T22:55:27.634Z,7.00
2022-10-05T22:57:59.072Z,6.70
2022-10-05T23:00:53.469Z,6.80
2022-10-05T23:03:21.568Z,5.90
2022-10-05T23:05:59.531Z,7.10
2022-10-05T23:08:31.396Z,6.10
2022-10-05T23:11:06.483Z,6.50
2022-10-05T23:13:38.168Z,6.00
2022-10-05T23:16:13.885Z,6.40
2022-10-05T23:18:47.205Z,5.60
2022-10-05T23:21:19.335Z,5.60
2022-10-05T23:23:52.470Z,6.40
2022-10-05T23:26:25.454Z,5.90
2022-10-05T23:28:56.723Z,5.90
2022-10-05T23:31:31.318Z,6.30
2022-10-05T23:34:02.626Z,6.10
2022-10-05T23:36:33.968Z,6.10
2022-10-05T23:39:05.555Z,5.50
2022-10-05T23:41:36.837Z,6.30
2022-10-05T23:44:08.171Z,6.30
2022-10-05T23:46:39.543Z,5.50
2022-10-05T23:49:10.851Z,5.80
2022-10-05T23:51:42.634Z,5.40
2022-10-05T23:54:14.656Z,6.00
2022-10-05T23:56:46.009Z,6.00
2022-10-05T23:59:17.282Z,6.30
